Accueil
METAR-TAF:

METAR-TAF

Aéroports :

Aéroport Kushok-Bakula-Rimpoché

Leh, Inde

latitude: 34-08-09N, longitude: 077-32-47E, altitude: 3256 m

METAR: absent

Heure: 07:43 (02:13 UTC)

Prévision

Le bulletin a été fait il y a 16 heures et 43 minutes, à 09:30 UTC
Prévision valable du 07 à 18 UTC au 08 à 12 UTC
Vent 2 kt de direction variable
Visibilité: 6000 m
Nuages épars à une hauteur de 6000 ft
Nuages fragmentés à une hauteur de 10000 ft
Evoluant progressivement
du 08 à 01 UTC au 08 à 06 UTC
Nuages épars à une hauteur de 5000 ft
Nuages fragmentés à une hauteur de 10000 ft
Evoluant progressivement
du 08 à 08 UTC au 08 à 09 UTC
Vent 10 kt de ouest/nord-ouest
Temporairement
du 08 à 09 UTC au 08 à 12 UTC
Vent 15 kt de ouest/nord-ouest avec des rafales jusqu'à 25 kt

TAF: VILH 070930Z 0718/0812 VRB02KT 6000 SCT060 BKN100 BECMG 0801/0806 SCT050 BKN100 BECMG 0808/0809 29010KT TEMPO 0809/0812 29015G25KT

Observations et prévisions météorologiques de plus de 4000 aéroports (messages METAR et TAF).

Les stations disponibles sont représentées par des disques jaunes et rouges sur la carte.

Passer la souris dessus pour voir le nom de la station.

Cliquer dessus pour voir les observations et prévisions météorologiques.

Pour changer de carte: cliquez sur les boutons verts avec une croix noire pour zoomer, sur le bouton vert avec un tiret pour effectuer un zoom arrière, ou sur les flèches vertes pour les cartes adjacentes.


METAR-TAF: